Terminal Aerodrome Forecast
Issued by NWS

Home | Current Version | Previous Version | Text Only | Print | Product List | Glossary On
Versions: 1 2 3 4 5 6 7 8 9 10
000
FTAK31 PAJN 260500
TAFAJN
TAF
PAJN 260536Z 2606/2706 09010KT P6SM -SHRA FEW007 BKN030 OVC050
      TEMPO 2606/2609 SCT015 OVC035
     FM260900 09005KT P6SM VCSH SCT010 OVC025
     FM261900 10005KT P6SM -SHRA SCT015 OVC035
     FM270000 10005KT P6SM -SHRA SCT015 OVC030=

USA.gov is the U.S. government's official web portal to all federal, state and local government web resources and services.